Timeline UpdatesTrip UpdatesNews PostsPvt PostsTravel TipsAdmin PostsConv PostsFollowed PostsChat RequestsBlog PostsPNR Posts

Disclaimer
Search
 
 
Mon Sep 1, 2014 13:03:53 ISTHomeTrainsΣChainsAtlasPNRForumGalleryNewsFAQTripsMembersLoginFeedback
Latest...
.
Wed Nov 13, 2013 (07:25AM)
⇐ Return Journey: Train# 16687

16688/Navyug Express

OLD Time-Table. New TT will soon be available.
Dec 10 2013 (10:22PM)
Change Departure Station:
Change Arrival Station:
Post a Train Travel TipPost a Train Travel Tip **new
Post a Comment/Question/Picture/VideoPost a Comment/Question/Picture/Video
Pantry/Catering
✓ Pantry Car Avbl
✓ Catering Avbl
Good Food
RSA - Rake Sharing
NO RSA
Rake/Coach Composition
ED- MAQ ENG-SLR-UR-UR-A1-B1-S1-S2-S3-S4-S5-PC-SLR; ED TEN: [S6-S7-S8-S9-A2-UR-SLR ]; JAT - ED- ENG-SLR-UR-UR-A1-B1-S1-S2-S3-S4-S5-PC-S6-S7-S8-S9-A2-UR-SLR
Loco
JAT-NDLS WDM 3A TKD-SHED WAP-4 (NDLS 2 SRR) ERS WDM 3A SRR-MAQ
News    PNR    Forum    Time-Table    Availability    Fare Chart    Map    Arr/Dep History    Trips    Gallery    ΣChains    X/O    Timeline    
Travel Time: 3h 7m    6 halts    Distance: 170 km    Avg Speed: 54 km/hr
Type: Mail/Express
Zone: SR/Southern
Departs @ 23:45 (Avg 1h 54m late)
Platform# 2
    T  
Jammu Tawi/JAT 
Arrives @ 02:52 +1 night (Avg 2h 8m late)
Platform# 2
     F 
Tanda Urmar/TDO 

6 halts. 29 intermediate Stations between Jammu Tawi and Tanda Urmar

Show ALL intermediate Stations  

#CodeStation NameX/OArrivesAvgDepartsAvgHaltPFDay#KmSpeedElevZoneAddress
1JAT»Jammu Tawi (3)»  -23:45+1:54210.065337mNRJammu 180002, Jammu and Kashmir
2SMBXSamba (2)  00:15+2:0200:17+2:022m1232.764365mNRDist. Samba, Jammu and Kashmir
3KTHUKathua (2)  00:58+2:0801:00+2:102m2276.349396mNRdistt. kathua, Jammu and Kashmir
4MDPBMadhopur Punjab (2)  01:10+2:1101:12+2:102m1284.456357mNRMadhopur, Punjab
5PTKCPathankot Cantt (3)  01:28+2:1901:33+2:185m1299.457328mNRPathankot By Pass Ph:0186-2251594, Punjab
6MEXMukerian (3)  02:15+2:1002:17+2:102m12139.353257mNRMukerian distt. hosiharpur, Punjab
7DZADasuya (2)X  02:34+2:0902:36+2:092m22154.358251mNRDasuya distt. hoshiarpur, Punjab
8TDO•Tanda Urmar (3)•  02:52+2:0802:54+2:082m22169.762239mNRUrmar Tanda, Punjab
9JRCJalandhar Cantt. Junction (3)X  03:35+2:0303:40+2:075m32211.954239mNRNear Rama Mandi, Punjab
10PGWPhagwara Junction (3)  03:58+2:0304:00+2:032m12228.275245mNRPhagwara, Punjab
11PHRPhillaur Junction (3)X  04:18+2:0404:20+2:042m12250.820246mNRPhillaur, Punjab
12LDHLudhiana Junction (7)X  05:00+1:4705:15+1:4515m52263.963246mNRLudhiana 141001, Punjab
13QRPKila Raipur (1)  05:32+2:0205:34+2:032m12281.651262mNRDelhon Pakhowal Rd, Punjab
14AHHAhmadgarh (1)  05:43+2:0505:45+2:092m12289.343256mNRAhmedgarh, Punjab
15METMalerkotla (2)  06:13+2:0206:15+2:052m12309.150248mNRMalerkotla., Punjab
16DUIDhuri Junction (4)X  06:35+2:0407:00+1:5025m--2326.064248mNRDhuri, Punjab
17SAGSangrur (2)X  07:15+1:5307:17+1:532m12342.035239mNRSangrur, Punjab
18SFMSunam (1)  07:39+1:4407:41+1:472m12354.871235mNRSunam, Punjab
19LHALehra Gaga (1)  07:59+1:4908:01+1:512m12376.119227mNRSangrur, Punjab
20JHLJakhal Junction  08:55+1:2909:00+1:305m--2393.067225mNRJakhal, Haryana
21TUNTohana (2)  09:11+1:3509:13+1:352m--2405.261232mNRTohana, Haryana
22NRWNarwana Junction (4)  09:38+1:2809:40+1:282m--2430.765235mNRWay to Narwana, Haryana
23UCAUchana  09:54+1:3209:56+1:322m--2445.958225mNRDistrict Jind, Haryana
24BZOBarsola  10:06+1:3310:08+1:322m--2455.534224mNRDistrict Jind, Haryana
25JINDJind Junction (3)X  10:24+1:2710:27+1:303m--2464.667222mNR126102., Haryana
26JNAJulana  10:50+1:2410:52+1:242m--2490.336226mNRJulana, Haryana
27ROKRohtak Junction (3)  11:45+1:2111:47+1:202m--2521.776220mNRRohtak, Haryana
28BGZBahadurgarh  12:19+1:1612:21+1:162m--2562.034220mNRBahadurgarh, Haryana
29SSBShakur Basti  12:56+1:1112:58+1:172m--2581.918216mNRPitampura, Delhi NCT
30NDLSNew Delhi (16)X13:35+1:2814:30+1:2055m92592.829215mNRNew Delhi, Delhi NCT
31NZMDelhi Hazrat Nizamuddin (7)  14:45+1:2814:55+1:2210m42600.229209mNRNew Delhi 110013, Delhi NCT
32FDBFaridabad (4)X  15:38+1:1315:40+1:312m32620.949206mNRold Faridabad, Haryana
33AGCAgra Cantt. (6)  19:05+4419:10+485m12787.890174mNCRAgra, Uttar Pradesh
34DHODholpur Junction (3)X  19:45+1:0219:47+1:032m22840.462177mNCRDholpur, Rajasthan
35GWLGwalior Junction (4)  20:50+1:1520:55+1:175m12905.862214mNCRGwalior, Madhya Pradesh
36JHSJhansi Junction (7)X  22:30+1:2822:40+1:3110m--21003.569259mNCRJhansi, Uttar Pradesh
37BPLBhopal Junction (6)X  02:55+1:2003:00+1:245m131295.338497mWCRBhopal, Madhya Pradesh
38ETItarsi Junction (7)X  05:25+5105:30+555m--31387.058329mWCRItarsi 461111, Madhya Pradesh
39NGPNagpur Junction (8)  10:35+5610:45+1:0210m231684.274314mCRNagpur 440001, Maharashtra
40SEGMSewagram Junction (5)  11:47+1:0611:49+1:062m--31760.466279mCRWardha, Maharashtra
41CDChandrapur Maharashtra (3)  13:36+1:0913:38+1:092m131879.016194mCRChandrapur 442401, Maharashtra
42BPQBalharshah Junction (5)  14:30+3714:40+4910m331892.874188mCRBallarpur. Ph : 07172 - 240341, Maharashtra
43RDMRamagundam (3)  16:35+1:0216:37+1:012m232034.650170mSCRKarimnagar Dist. Ph : 08728 - 255237, Telangana
44WLWarangal (3)X  18:38+1:0018:43+595m132135.767271mSCRWarangal., Telangana
45KMTKhammam (2)X  20:19+1:1120:20+1:151m132243.331118mSCRKhammam 507001, Telangana
46BZAVijayawada Junction (10)X  23:35+1923:45+2310m732343.77524mSCRVijayawada 520001, Andhra Pradesh
47TELTenali Junction (5)X  00:10+4800:12+482m242374.96916mSCRTel: 08644-227834, Andhra Pradesh
48OGLOngole (3)  01:45+3701:47+372m342481.97712mSCROngole, Andhra Pradesh
49NLRNellore (4)  03:18+1603:20+162m342598.73421mSCRNellore, Andhra Pradesh
50GDRGudur Junction (3)  04:28+1404:30+142m142637.27119mSCRGudur, Andhra Pradesh
51RURenigunta Junction (5)X  05:40+3105:50+3210m242720.640113mSCRChittoor District, Andhra Pradesh
52TPTYTirupati Main (5)  06:05+3506:10+375m242730.455150mSCRChittoor Distt, Andhra Pradesh
53CTOChittoor (3)  07:28+4007:30+402m--42802.323305mSCR517001., Andhra Pradesh
54KPDKatpadi Junction (5)X  08:55+1008:57+122m342835.471213mSRVellore 632007, Tamil Nadu
55JTJJolarpettai Junction (5)X  10:08+810:10+102m--42919.380405mSRJolarpettai, Tamil Nadu
56SASalem Junction (6)  11:40+1211:45+125m--43039.553283mSRSalem, Tamil Nadu
57EDErode Junction (4)12:55+813:20+1625m343100.870175mSRErode ph.no: 0424-2256111, Tamil Nadu
58TUPTiruppur (2)X  14:03+1214:05+122m143151.155305mSRTiruppur. Ph:0421-2200450, Tamil Nadu
59CBECoimbatore Main Junction (6)X  15:00+815:05+85m143201.544416mSRCoimbatore 641001, Tamil Nadu
60PGTPalakkad Junction (4)X  16:20+016:25+25m143256.85484mSRPalghat Tel: 0491 2555231, Kerala
61SRRShoranur Junction (7)X17:15+1017:25+2010m243301.46526mSRShoranur ph.no 0466-2222913, Kerala
62CLTKozhikode Main (4)X  18:45+318:50+35m443387.87911mSRCalicut Tel: 0495 2701234, Kerala
63TLYThalassery (2)  19:42+819:45+73m--43456.1509mSRKannur, Kerala
64CANKannur Main (4)XO  20:10+1520:15+145m143476.87114mSRKannur Tel: 0497 2705555, Kerala
65KGQKasaragod (3)  21:28+921:30+92m243562.93718mSRTel: 04994 220800, Kerala
66MAQMangalore Central (4)  22:45+2-243608.6-14mSRMangalore 575001, Karnataka
Scroll to Top
Scroll to Bottom